Time;durP1;ratioP1;P1;durP2;ratioP2;P2;SDS_P1;SDS_P2;PMS_P1;PMS_P2;Temp;Humidity;BMP_temperature;BMP_pressure;BME280_temperature;BME280_humidity;BME280_pressure;Samples;Min_cycle;Max_cycle;Signal;HPM_P1;HPM_P2
2023/03/29 00:11:07;;;;;;;19.35;17.85;;;7.50;99.90;;;;;;6244055;22;20027;-89
2023/03/29 00:13:34;;;;;;;18.73;17.42;;;7.40;99.90;;;;;;6255830;22;20010;-91
2023/03/29 00:16:01;;;;;;;19.25;17.88;;;7.30;99.90;;;;;;6256037;22;20007;-91
2023/03/29 00:18:28;;;;;;;18.23;17.13;;;7.30;99.90;;;;;;6256085;22;20390;-92
2023/03/29 00:20:58;;;;;;;19.23;17.83;;;7.20;99.90;;;;;;6250642;22;20425;-91
2023/03/29 00:23:25;;;;;;;19.40;18.20;;;7.20;99.90;;;;;;6250959;22;20023;-90
2023/03/29 00:25:55;;;;;;;19.25;18.10;;;7.10;99.90;;;;;;6250905;22;20425;-90
2023/03/29 00:28:23;;;;;;;19.77;18.30;;;7.00;99.90;;;;;;6250955;22;20394;-90
2023/03/29 00:30:49;;;;;;;19.90;18.80;;;6.80;99.90;;;;;;6276169;22;20008;-92
2023/03/29 00:33:20;;;;;;;19.95;18.75;;;6.70;99.90;;;;;;6276377;22;20008;-90
2023/03/29 00:35:47;;;;;;;20.45;18.83;;;6.60;99.90;;;;;;6250963;22;20007;-90
2023/03/29 00:38:15;;;;;;;19.90;18.65;;;6.60;99.90;;;;;;6276343;22;20008;-91
2023/03/29 00:40:48;;;;;;;19.92;18.63;;;6.60;99.90;;;;;;6276382;22;20089;-91
2023/03/29 00:43:15;;;;;;;20.67;19.27;;;6.60;99.90;;;;;;6250762;22;20019;-91
2023/03/29 00:45:42;;;;;;;20.77;18.85;;;6.60;99.90;;;;;;6250680;22;20437;-90
2023/03/29 00:48:12;;;;;;;20.02;18.73;;;6.70;99.90;;;;;;6225529;22;20012;-91
2023/03/29 00:51:13;;;;;;;20.10;18.60;;;6.70;99.90;;;;;;6250511;22;20049;-92
2023/03/29 00:53:48;;;;;;;20.00;18.48;;;6.70;99.90;;;;;;6184140;23;20101;-92
2023/03/29 00:56:30;;;;;;;19.88;18.52;;;6.70;99.90;;;;;;6159884;23;20093;-91
2023/03/29 00:59:10;;;;;;;19.08;17.98;;;6.60;99.90;;;;;;6159782;23;20005;-91
2023/03/29 01:01:53;;;;;;;20.73;19.00;;;6.60;99.90;;;;;;6159624;23;20044;-94
2023/03/29 01:04:35;;;;;;;19.67;18.10;;;6.60;99.90;;;;;;6159715;23;20013;-92
2023/03/29 01:07:13;;;;;;;19.70;18.35;;;6.60;99.90;;;;;;6159263;23;20183;-91
2023/03/29 01:09:43;;;;;;;19.80;18.50;;;6.50;99.90;;;;;;6165737;23;20009;-92
2023/03/29 01:12:21;;;;;;;20.52;19.20;;;6.40;99.90;;;;;;6159099;23;20132;-92
2023/03/29 01:14:55;;;;;;;21.25;19.27;;;6.40;99.90;;;;;;6159472;23;20009;-91
2023/03/29 01:17:24;;;;;;;;;;;6.30;99.90;;;;;;6161437;23;20008;-92
2023/03/29 01:20:09;;;;;;;20.13;18.70;;;6.30;99.90;;;;;;6142943;23;19906;-91
2023/03/29 01:22:59;;;;;;;19.75;18.45;;;6.40;99.90;;;;;;6159605;23;20084;-92
2023/03/29 01:25:32;;;;;;;19.65;18.35;;;6.30;99.90;;;;;;6159418;23;20040;-91
2023/03/29 01:28:23;;;;;;;20.20;18.70;;;6.30;99.90;;;;;;6135339;23;20339;-90
2023/03/29 01:31:28;;;;;;;19.75;18.52;;;6.30;99.90;;;;;;6151528;23;20075;-91
2023/03/29 01:34:29;;;;;;;20.67;18.95;;;6.30;99.90;;;;;;6076208;23;20400;-92
2023/03/29 01:37:23;;;;;;;20.52;19.00;;;6.20;99.90;;;;;;6076462;23;20487;-90
2023/03/29 01:39:51;;;;;;;21.10;18.95;;;6.20;99.90;;;;;;6076622;23;20009;-90
2023/03/29 01:42:36;;;;;;;19.60;18.30;;;6.10;99.90;;;;;;6100363;23;20784;-90
2023/03/29 01:45:45;;;;;;;19.95;18.67;;;6.10;99.90;;;;;;6100765;23;20010;-91
2023/03/29 01:48:34;;;;;;;20.52;19.02;;;6.00;99.90;;;;;;6076335;23;20018;-89
2023/03/29 01:51:09;;;;;;;21.67;19.92;;;5.90;99.90;;;;;;6124374;23;20014;-90
2023/03/29 01:54:13;;;;;;;19.83;18.63;;;5.90;99.90;;;;;;6076398;23;20010;-91
2023/03/29 01:56:43;;;;;;;20.67;19.33;;;5.90;99.90;;;;;;6100999;23;20030;-90
2023/03/29 01:59:21;;;;;;;21.05;19.65;;;5.90;99.90;;;;;;6113133;23;20005;-91
2023/03/29 02:01:56;;;;;;;21.23;19.63;;;5.80;99.90;;;;;;6127845;23;20021;-90
2023/03/29 02:04:33;;;;;;;21.23;19.55;;;5.80;99.90;;;;;;6077558;23;20055;-91
2023/03/29 02:07:03;;;;;;;21.35;19.88;;;5.80;99.90;;;;;;6087033;23;20016;-90
2023/03/29 02:09:31;;;;;;;21.25;19.85;;;5.80;99.90;;;;;;6193261;22;20016;-92
2023/03/29 02:12:01;;;;;;;21.23;19.83;;;5.90;99.90;;;;;;6277668;22;20026;-91
2023/03/29 02:14:32;;;;;;;21.85;20.17;;;5.90;99.90;;;;;;6277776;22;20479;-90
2023/03/29 02:17:26;;;;;;;21.20;19.48;;;5.90;99.90;;;;;;6278385;22;20396;-91
2023/03/29 02:20:39;;;;;;;20.95;19.52;;;5.80;99.90;;;;;;6229488;22;20004;-92
2023/03/29 02:23:20;;;;;;;21.42;19.95;;;5.80;99.90;;;;;;6249629;22;20016;-90
2023/03/29 02:25:49;;;;;;;21.80;20.10;;;5.70;99.90;;;;;;6277424;22;20007;-90
2023/03/29 02:28:16;;;;;;;21.80;20.08;;;5.70;99.90;;;;;;6278085;22;20023;-90
2023/03/29 02:31:11;;;;;;;21.85;20.00;;;5.60;99.90;;;;;;6277705;22;20007;-90
2023/03/29 02:33:59;;;;;;;21.33;19.90;;;5.60;99.90;;;;;;6266916;22;20011;-91
2023/03/29 02:36:33;;;;;;;21.45;19.55;;;5.60;99.90;;;;;;6251988;22;20314;-91
2023/03/29 02:39:03;;;;;;;21.47;19.77;;;5.60;99.90;;;;;;6280501;22;20425;-90
2023/03/29 02:41:37;;;;;;;21.05;19.48;;;5.60;99.90;;;;;;6282258;22;20389;-90
2023/03/29 02:44:09;;;;;;;21.50;19.60;;;5.70;99.90;;;;;;6277473;22;20049;-91
2023/03/29 02:46:37;;;;;;;21.40;19.85;;;5.50;99.90;;;;;;6279396;22;20003;-90
2023/03/29 02:49:04;;;;;;;21.38;19.67;;;5.50;99.90;;;;;;6253327;22;20016;-90
2023/03/29 02:51:33;;;;;;;21.77;20.17;;;5.50;99.90;;;;;;6278667;22;20008;-91
2023/03/29 02:54:08;;;;;;;20.98;19.58;;;5.50;99.90;;;;;;6277335;22;20026;-89
2023/03/29 02:56:57;;;;;;;21.30;19.67;;;5.60;99.90;;;;;;6276989;22;20035;-91
2023/03/29 02:59:24;;;;;;;21.70;20.20;;;5.60;99.90;;;;;;6277279;22;20468;-90
2023/03/29 03:01:52;;;;;;;21.95;20.40;;;5.60;99.90;;;;;;6251579;22;20033;-91
2023/03/29 03:04:22;;;;;;;21.35;19.58;;;5.60;99.90;;;;;;6251683;22;20014;-90
2023/03/29 03:06:49;;;;;;;21.25;19.77;;;5.60;99.90;;;;;;6251835;22;20444;-91
2023/03/29 03:09:15;;;;;;;21.05;19.65;;;5.60;99.90;;;;;;6277034;22;20101;-89
2023/03/29 03:11:45;;;;;;;21.17;19.75;;;5.50;99.90;;;;;;6270906;22;20020;-91
2023/03/29 03:14:12;;;;;;;21.40;19.40;;;5.50;99.90;;;;;;6246335;22;20015;-90
2023/03/29 03:16:41;;;;;;;21.25;19.95;;;5.50;99.90;;;;;;6246469;22;20429;-90
2023/03/29 03:19:09;;;;;;;21.17;19.60;;;5.40;99.90;;;;;;6246512;22;20087;-92
2023/03/29 03:21:36;;;;;;;20.95;19.60;;;5.30;99.90;;;;;;6246342;23;20014;-92
2023/03/29 03:24:04;;;;;;;21.45;19.75;;;5.30;99.90;;;;;;6246307;22;20062;-90
2023/03/29 03:26:30;;;;;;;21.73;20.10;;;5.30;99.90;;;;;;6246394;23;20005;-90
2023/03/29 03:28:57;;;;;;;21.23;19.58;;;5.30;99.90;;;;;;6246629;22;20358;-90
2023/03/29 03:31:53;;;;;;;21.15;19.45;;;5.20;99.90;;;;;;6243548;23;20028;-91
2023/03/29 03:34:38;;;;;;;21.35;19.70;;;5.20;99.90;;;;;;6246844;23;20027;-93
2023/03/29 03:37:06;;;;;;;21.13;19.52;;;5.20;99.90;;;;;;6246752;22;20011;-92
2023/03/29 03:39:35;;;;;;;21.52;19.90;;;5.20;99.90;;;;;;6246948;22;20008;-91
2023/03/29 03:42:03;;;;;;;21.27;19.73;;;5.20;99.90;;;;;;6246662;22;20043;-92
2023/03/29 03:44:30;;;;;;;21.00;19.40;;;5.20;99.90;;;;;;6246016;22;20064;-90
2023/03/29 03:47:17;;;;;;;21.00;19.50;;;5.20;99.90;;;;;;6246273;23;20000;-91
2023/03/29 03:49:44;;;;;;;21.13;19.40;;;5.10;99.90;;;;;;6246158;22;20073;-91
2023/03/29 03:52:12;;;;;;;20.60;19.20;;;5.20;99.90;;;;;;6246476;22;20011;-90
2023/03/29 03:54:39;;;;;;;21.00;19.40;;;5.10;99.90;;;;;;6246271;22;20034;-91
2023/03/29 03:57:42;;;;;;;21.92;19.88;;;5.20;99.90;;;;;;6184785;23;20001;-91
2023/03/29 04:00:18;;;;;;;21.48;19.50;;;5.10;99.90;;;;;;6136144;23;20016;-90
2023/03/29 04:02:55;;;;;;;21.02;19.38;;;5.10;99.90;;;;;;6135959;23;20025;-91
2023/03/29 04:05:21;;;;;;;21.33;19.58;;;5.10;99.90;;;;;;6135678;23;20038;-91
2023/03/29 04:07:49;;;;;;;21.27;19.67;;;5.10;99.90;;;;;;6141645;23;20005;-91
2023/03/29 04:10:28;;;;;;;20.83;19.42;;;5.10;99.90;;;;;;6137329;23;20048;-91
2023/03/29 04:13:11;;;;;;;20.52;19.15;;;5.10;99.90;;;;;;6137021;23;20013;-91
2023/03/29 04:15:58;;;;;;;20.08;18.58;;;5.10;99.90;;;;;;6162759;23;20017;-92
2023/03/29 04:18:25;;;;;;;21.05;19.13;;;5.10;99.90;;;;;;6158736;23;20497;-91
2023/03/29 04:20:55;;;;;;;20.25;18.48;;;5.00;99.90;;;;;;6159475;23;20044;-93
2023/03/29 04:23:24;;;;;;;20.48;18.40;;;5.00;99.90;;;;;;6158605;23;20024;-88
2023/03/29 04:25:55;;;;;;;19.67;18.35;;;5.00;99.90;;;;;;6158434;23;20121;-93
2023/03/29 04:28:50;;;;;;;19.05;17.75;;;5.00;99.90;;;;;;6162523;23;20083;-94
2023/03/29 04:31:30;;;;;;;19.73;18.08;;;5.00;99.90;;;;;;6158694;23;20386;-92
2023/03/29 04:34:20;;;;;;;19.95;18.40;;;5.00;99.90;;;;;;6197152;22;20004;-91
2023/03/29 04:36:50;;;;;;;20.27;18.40;;;5.00;99.90;;;;;;6249867;22;20008;-94
2023/03/29 04:39:22;;;;;;;20.77;19.15;;;5.10;99.90;;;;;;6275400;22;20003;-92
2023/03/29 04:41:54;;;;;;;19.88;18.50;;;5.10;99.90;;;;;;6250068;22;20008;-94
2023/03/29 04:44:34;;;;;;;19.25;18.05;;;5.10;99.90;;;;;;6250244;22;20012;-92
2023/03/29 04:47:05;;;;;;;19.13;17.92;;;5.10;99.90;;;;;;6250069;22;20008;-93
2023/03/29 04:49:45;;;;;;;20.10;18.60;;;5.10;99.90;;;;;;6249931;22;20433;-95
2023/03/29 04:52:19;;;;;;;21.08;19.27;;;5.20;99.90;;;;;;6275189;22;20004;-91
2023/03/29 04:54:49;;;;;;;20.38;19.08;;;5.30;99.90;;;;;;6275231;22;20012;-93
2023/03/29 04:57:40;;;;;;;21.23;19.30;;;5.40;99.90;;;;;;6234111;23;20055;-94
2023/03/29 05:00:15;;;;;;;20.25;18.70;;;5.50;99.90;;;;;;6221550;22;20018;-91
2023/03/29 05:02:54;;;;;;;20.65;19.25;;;5.60;99.90;;;;;;6275447;22;20103;-91
2023/03/29 05:05:21;;;;;;;22.02;20.20;;;5.80;99.90;;;;;;6275321;22;20468;-92
2023/03/29 05:07:50;;;;;;;21.65;19.55;;;6.00;99.90;;;;;;6250627;22;20011;-94
2023/03/29 05:12:14;;;;;;;21.73;20.02;;;6.10;99.90;;;;;;5102393;27;20331;-90
2023/03/29 05:14:52;;;;;;;21.48;19.90;;;6.20;99.90;;;;;;5070284;28;20032;-90
2023/03/29 05:17:20;;;;;;;22.38;20.83;;;6.30;99.90;;;;;;5037311;28;20116;-93
2023/03/29 05:19:48;;;;;;;22.10;20.45;;;6.40;99.90;;;;;;5037497;28;20029;-91
2023/03/29 05:22:20;;;;;;;23.13;21.33;;;6.60;99.90;;;;;;5037711;28;20049;-92
2023/03/29 05:24:47;;;;;;;21.45;19.80;;;6.80;99.90;;;;;;5037622;28;20040;-92
2023/03/29 05:27:16;;;;;;;20.17;18.50;;;7.50;99.90;;;;;;5043441;28;20021;-92
2023/03/29 05:29:49;;;;;;;20.47;18.73;;;8.40;99.90;;;;;;5055516;28;20020;-91
2023/03/29 05:32:31;;;;;;;20.77;19.38;;;9.10;99.90;;;;;;5055489;28;20087;-90
2023/03/29 05:34:57;;;;;;;22.08;20.70;;;10.10;99.90;;;;;;5053547;28;20029;-91
2023/03/29 05:37:25;;;;;;;22.60;20.90;;;11.00;99.90;;;;;;5037321;28;20032;-91
2023/03/29 05:39:59;;;;;;;23.05;21.00;;;11.60;99.90;;;;;;5053422;28;20025;-92
2023/03/29 05:42:31;;;;;;;22.60;21.10;;;12.10;99.90;;;;;;5071981;28;20032;-94
2023/03/29 05:45:11;;;;;;;22.77;21.02;;;12.60;99.90;;;;;;5075286;28;20115;-93
2023/03/29 05:47:39;;;;;;;22.17;20.67;;;12.80;99.90;;;;;;5072954;28;20029;-92
2023/03/29 05:50:08;;;;;;;23.45;21.52;;;13.20;99.90;;;;;;5056609;28;20046;-91
2023/03/29 05:52:38;;;;;;;22.35;20.50;;;13.30;99.90;;;;;;5056893;28;20492;-90
2023/03/29 05:55:06;;;;;;;23.73;21.20;;;13.50;99.90;;;;;;5056591;28;20028;-91
2023/03/29 05:57:36;;;;;;;24.73;22.63;;;13.70;99.90;;;;;;5056508;28;20038;-90
2023/03/29 06:00:20;;;;;;;23.58;21.70;;;13.70;99.90;;;;;;5057204;28;20047;-89
2023/03/29 06:02:48;;;;;;;23.70;21.85;;;13.90;99.90;;;;;;5056313;28;20035;-90
2023/03/29 06:05:15;;;;;;;24.27;22.17;;;13.90;99.90;;;;;;5056954;28;20507;-91
2023/03/29 06:08:00;;;;;;;25.08;22.80;;;14.00;99.90;;;;;;5084085;28;20035;-91
2023/03/29 06:11:04;;;;;;;26.02;23.83;;;13.80;99.90;;;;;;5079721;28;20516;-89
2023/03/29 06:13:51;;;;;;;25.42;23.25;;;13.90;99.90;;;;;;5096668;28;20032;-90
2023/03/29 06:16:19;;;;;;;26.17;23.73;;;13.60;99.90;;;;;;5081840;28;20035;-90
2023/03/29 06:18:46;;;;;;;26.40;23.83;;;13.50;99.90;;;;;;5096747;28;20015;-92
2023/03/29 06:21:13;;;;;;;25.25;22.98;;;13.40;99.90;;;;;;5085453;28;20031;-91
2023/03/29 06:23:40;;;;;;;23.60;21.90;;;13.10;99.90;;;;;;5061944;28;20103;-89
2023/03/29 06:26:09;;;;;;;24.85;22.50;;;13.00;99.90;;;;;;5062746;28;20043;-89
2023/03/29 06:28:37;;;;;;;25.02;23.05;;;13.80;99.90;;;;;;5062403;28;20411;-90
2023/03/29 06:31:04;;;;;;;24.02;22.05;;;14.60;99.90;;;;;;5062437;28;20036;-90
2023/03/29 06:33:36;;;;;;;30.10;22.92;;;14.70;99.90;;;;;;5063720;28;20051;-90
2023/03/29 06:36:14;;;;;;;25.17;23.20;;;15.80;99.90;;;;;;5063659;28;20036;-91
2023/03/29 06:38:44;;;;;;;24.20;21.75;;;16.00;99.90;;;;;;5062253;28;20385;-91
2023/03/29 06:41:20;;;;;;;23.65;21.60;;;15.90;99.90;;;;;;5063512;28;20031;-92
2023/03/29 06:44:04;;;;;;;24.88;22.20;;;15.60;99.90;;;;;;5064656;28;20036;-90
2023/03/29 06:46:36;;;;;;;23.65;21.70;;;14.90;99.90;;;;;;5065362;28;20055;-91
2023/03/29 06:49:06;;;;;;;23.70;21.70;;;14.40;99.90;;;;;;5071943;28;20055;-91
2023/03/29 06:51:42;;;;;;;24.38;22.23;;;14.10;99.90;;;;;;5057094;28;20045;-92
2023/03/29 06:54:09;;;;;;;23.60;21.90;;;13.90;99.90;;;;;;5060645;28;20041;-90
2023/03/29 06:56:39;;;;;;;24.27;22.27;;;13.90;99.90;;;;;;5060824;28;20042;-92
2023/03/29 06:59:12;;;;;;;23.90;22.10;;;13.70;99.90;;;;;;5061109;28;20015;-92
2023/03/29 07:01:57;;;;;;;23.88;22.15;;;13.50;99.90;;;;;;5043929;28;20116;-94
2023/03/29 07:04:35;;;;;;;23.23;21.73;;;13.40;99.90;;;;;;5039088;28;20113;-92
2023/03/29 07:07:18;;;;;;;23.40;21.70;;;13.40;99.90;;;;;;5038990;28;20032;-90
2023/03/29 07:09:54;;;;;;;23.30;21.73;;;13.60;99.90;;;;;;5038598;28;20033;-92
2023/03/29 07:12:39;;;;;;;23.23;21.73;;;14.00;99.90;;;;;;5077714;28;20043;-93
2023/03/29 07:15:08;;;;;;;23.40;22.00;;;14.40;99.90;;;;;;5061627;28;20028;-90
2023/03/29 17:54:38;;;;;;;26.80;24.42;;;11.70;99.90;;;;;;5262641;23;20098;-95
2023/03/29 17:57:19;;;;;;;30.27;27.17;;;11.50;99.90;;;;;;4926091;29;20040;-94
2023/03/29 17:59:48;;;;;;;36.70;29.63;;;11.40;99.90;;;;;;4920548;29;20040;-94
2023/03/29 18:02:25;;;;;;;34.42;29.45;;;11.30;99.90;;;;;;4916701;29;20032;-91
2023/03/29 18:04:52;;;;;;;29.08;25.95;;;11.20;99.90;;;;;;4899681;29;20161;-94
2023/03/29 18:07:19;;;;;;;27.42;24.83;;;11.20;99.90;;;;;;4896917;29;20466;-93
2023/03/29 18:09:46;;;;;;;26.02;23.55;;;11.10;99.90;;;;;;4897276;29;20040;-94
2023/03/29 18:12:15;;;;;;;26.40;23.90;;;11.10;99.90;;;;;;4896838;29;20134;-93
2023/03/29 18:14:47;;;;;;;26.40;23.60;;;11.00;99.90;;;;;;4897183;29;20033;-92
2023/03/29 18:17:15;;;;;;;25.20;23.00;;;10.90;99.90;;;;;;4897658;29;20514;-94
2023/03/29 18:19:43;;;;;;;24.73;22.23;;;10.70;99.90;;;;;;4900022;29;20064;-93
2023/03/29 18:22:11;;;;;;;26.83;24.10;;;10.60;99.90;;;;;;4900648;29;20199;-93
2023/03/29 18:24:39;;;;;;;24.50;22.40;;;10.60;99.90;;;;;;4900162;29;20052;-93
2023/03/29 18:27:06;;;;;;;23.70;21.70;;;10.50;99.90;;;;;;4900354;29;20032;-94
2023/03/29 18:29:37;;;;;;;24.63;22.27;;;10.50;99.90;;;;;;4900653;29;20036;-93
2023/03/29 18:32:12;;;;;;;25.77;23.35;;;10.50;99.90;;;;;;4902082;29;20040;-93
2023/03/29 18:34:39;;;;;;;25.00;22.75;;;10.50;99.90;;;;;;4911650;29;20047;-94
2023/03/29 18:37:13;;;;;;;25.13;22.85;;;10.50;99.90;;;;;;4906632;29;20401;-95
2023/03/29 18:39:40;;;;;;;25.75;23.20;;;10.60;99.90;;;;;;4923019;29;20059;-93
2023/03/29 18:42:08;;;;;;;25.90;23.65;;;10.50;99.90;;;;;;4905683;29;20040;-93
2023/03/29 18:44:44;;;;;;;26.63;24.13;;;10.50;99.90;;;;;;4916427;29;20024;-93
2023/03/29 18:47:17;;;;;;;29.15;26.25;;;10.40;99.90;;;;;;4924376;29;20079;-94
2023/03/29 18:49:44;;;;;;;26.90;24.15;;;10.30;99.90;;;;;;4927350;29;20034;-94
2023/03/29 18:52:11;;;;;;;29.73;25.52;;;10.20;99.90;;;;;;4934320;29;20043;-94
2023/03/29 18:54:38;;;;;;;28.33;24.15;;;10.10;99.90;;;;;;4931699;29;20047;-94
2023/03/29 18:57:05;;;;;;;27.30;24.48;;;10.00;99.90;;;;;;4945694;29;20040;-93
2023/03/29 18:59:35;;;;;;;26.50;23.80;;;9.90;99.90;;;;;;4933024;29;20036;-94
2023/03/29 19:02:02;;;;;;;26.50;23.85;;;9.90;99.90;;;;;;4923706;29;20039;-93
2023/03/29 19:04:30;;;;;;;26.85;24.25;;;9.80;99.90;;;;;;4916731;29;20031;-92
2023/03/29 19:06:58;;;;;;;26.55;24.33;;;9.80;99.90;;;;;;4903235;29;20056;-93
2023/03/29 19:09:26;;;;;;;26.20;23.73;;;9.80;99.90;;;;;;4919028;29;20024;-94
2023/03/29 19:11:54;;;;;;;26.65;24.25;;;9.90;99.90;;;;;;4920473;29;20070;-93
2023/03/29 19:14:24;;;;;;;31.90;28.50;;;9.90;99.90;;;;;;4919280;29;20020;-92
2023/03/29 19:16:51;;;;;;;26.30;23.65;;;9.90;99.90;;;;;;4903014;29;20028;-94
2023/03/29 19:19:20;;;;;;;26.20;23.65;;;9.90;99.90;;;;;;4902819;29;20029;-93
2023/03/29 19:21:48;;;;;;;25.63;23.15;;;9.90;99.90;;;;;;4924504;29;20024;-93
2023/03/29 19:24:17;;;;;;;28.92;25.35;;;9.90;99.90;;;;;;4928479;29;20028;-93
2023/03/29 19:26:44;;;;;;;31.80;26.50;;;10.00;99.90;;;;;;4911790;29;20063;-92
2023/03/29 19:29:20;;;;;;;43.78;31.23;;;10.00;99.90;;;;;;4928272;29;20028;-94
2023/03/29 19:31:53;;;;;;;62.55;36.63;;;10.10;99.90;;;;;;4914884;29;20044;-93
2023/03/29 19:34:26;;;;;;;66.53;39.78;;;10.10;99.90;;;;;;4891965;29;20036;-94
2023/03/29 19:36:54;;;;;;;67.20;40.55;;;10.30;99.90;;;;;;4942343;29;20051;-94
2023/03/29 19:39:28;;;;;;;65.68;39.58;;;10.30;99.90;;;;;;4940052;29;20123;-94
2023/03/29 19:41:56;;;;;;;56.38;36.55;;;10.30;99.90;;;;;;4941573;29;20111;-94
2023/03/29 19:44:26;;;;;;;68.82;40.03;;;10.30;99.90;;;;;;4924437;29;20035;-93
2023/03/29 19:46:56;;;;;;;61.78;37.22;;;10.20;99.90;;;;;;4943266;29;20039;-94
2023/03/29 19:49:25;;;;;;;58.17;37.58;;;10.20;99.90;;;;;;4943600;29;20040;-93
2023/03/29 19:51:57;;;;;;;51.38;33.40;;;10.20;99.90;;;;;;4943045;29;20060;-94
2023/03/29 19:54:25;;;;;;;50.92;34.72;;;10.20;99.90;;;;;;4937474;29;20550;-94
2023/03/29 19:56:55;;;;;;;46.40;32.28;;;10.00;99.90;;;;;;4930625;29;20063;-94
2023/03/29 19:59:39;;;;;;;38.58;30.08;;;9.80;99.90;;;;;;4962131;29;20039;-93
2023/03/29 20:02:34;;;;;;;33.35;28.17;;;9.70;99.90;;;;;;4945560;29;20058;-94
2023/03/29 20:05:04;;;;;;;27.45;24.73;;;9.50;99.90;;;;;;4943997;29;20440;-93
2023/03/29 20:07:36;;;;;;;28.00;25.27;;;9.30;99.90;;;;;;4948976;29;20043;-94
2023/03/29 20:10:05;;;;;;;25.48;23.13;;;9.20;99.90;;;;;;4964477;29;20055;-94
2023/03/29 20:12:46;;;;;;;25.15;22.95;;;9.10;99.90;;;;;;4932656;29;20044;-94
2023/03/29 20:15:19;;;;;;;24.95;22.83;;;8.90;99.90;;;;;;4918291;29;20052;-94
2023/03/29 20:17:51;;;;;;;25.27;22.63;;;8.90;99.90;;;;;;4896277;29;20064;-94
2023/03/29 20:20:29;;;;;;;24.83;22.77;;;8.80;99.90;;;;;;4879164;29;20024;-94
2023/03/29 20:23:02;;;;;;;24.50;22.58;;;8.70;99.90;;;;;;4893826;29;20024;-95
2023/03/29 20:25:48;;;;;;;24.40;22.25;;;8.60;99.90;;;;;;4916302;29;20032;-94
2023/03/29 20:39:31;;;;;;;23.83;21.75;;;8.50;99.90;;;;;;4961596;23;20055;-94
2023/03/29 20:42:30;;;;;;;23.40;21.80;;;8.40;99.90;;;;;;4954586;29;20036;-92
2023/03/29 20:45:51;;;;;;;;;;;;;;;;;;;;;
2023/03/29 20:48:37;;;;;;;23.90;22.00;;;8.30;99.90;;;;;;4957702;29;20058;-93
2023/03/29 20:54:39;;;;;;;23.27;21.27;;;8.20;99.90;;;;;;4938366;29;20054;-93
2023/03/29 20:57:07;;;;;;;22.52;20.52;;;8.20;99.90;;;;;;4954821;28;20320;-92
2023/03/29 20:59:42;;;;;;;22.13;20.20;;;8.20;99.90;;;;;;4958416;28;20023;-93
2023/03/29 21:02:20;;;;;;;21.95;20.13;;;8.20;99.90;;;;;;4955832;28;20114;-92
2023/03/29 21:04:51;;;;;;;21.23;19.73;;;8.10;99.90;;;;;;4955694;28;20042;-93
2023/03/29 21:07:33;;;;;;;21.55;19.85;;;8.10;99.90;;;;;;4955707;28;20035;-93
2023/03/29 21:10:05;;;;;;;21.17;19.67;;;8.10;99.90;;;;;;4975201;28;20038;-92
2023/03/29 21:12:33;;;;;;;22.37;20.13;;;8.10;99.90;;;;;;4900734;29;20196;-92
2023/03/29 21:15:02;;;;;;;22.15;20.45;;;8.00;99.90;;;;;;4930788;29;20542;-94
2023/03/29 21:17:29;;;;;;;21.70;19.80;;;8.00;99.90;;;;;;4916374;29;20099;-95
2023/03/29 21:19:56;;;;;;;22.30;20.33;;;8.00;99.90;;;;;;4915924;29;20047;-93
2023/03/29 21:22:23;;;;;;;23.35;20.83;;;8.00;99.90;;;;;;4913623;29;20036;-93
2023/03/29 21:24:52;;;;;;;22.75;20.83;;;7.90;99.90;;;;;;4922334;29;20034;-92
2023/03/29 21:27:19;;;;;;;22.67;20.77;;;7.90;99.90;;;;;;4933186;29;20051;-93
2023/03/29 21:29:49;;;;;;;22.13;20.20;;;7.90;99.90;;;;;;4907509;29;20035;-93
2023/03/29 21:32:17;;;;;;;22.88;20.67;;;7.90;99.90;;;;;;4922490;29;20638;-93
2023/03/29 21:34:45;;;;;;;20.55;18.52;;;8.00;99.90;;;;;;4898115;29;20044;-93
2023/03/29 21:37:12;;;;;;;18.08;16.60;;;8.10;99.90;;;;;;4918577;29;20051;-93
2023/03/29 21:39:40;;;;;;;16.83;15.57;;;8.30;99.90;;;;;;4907117;29;20032;-92
2023/03/29 21:42:10;;;;;;;16.95;15.50;;;8.50;99.90;;;;;;4892131;29;20028;-93
2023/03/29 21:44:37;;;;;;;16.70;15.00;;;8.70;99.90;;;;;;4906163;29;20094;-93
2023/03/29 21:47:06;;;;;;;16.00;14.57;;;8.70;99.90;;;;;;4908389;29;20044;-93
2023/03/29 21:49:36;;;;;;;16.00;14.75;;;8.80;99.90;;;;;;4885023;29;20049;-93
2023/03/29 21:52:03;;;;;;;16.30;14.60;;;8.90;99.90;;;;;;4852040;29;20143;-94
2023/03/29 21:54:30;;;;;;;16.50;14.82;;;8.90;99.90;;;;;;4867668;29;20549;-92
2023/03/29 21:57:00;;;;;;;16.45;15.05;;;8.90;99.90;;;;;;4879486;29;20067;-94
2023/03/29 21:59:35;;;;;;;20.85;17.42;;;8.90;99.90;;;;;;4895631;29;20055;-94
2023/03/29 22:02:02;;;;;;;18.77;16.73;;;8.90;99.90;;;;;;4899120;29;20113;-93
2023/03/29 22:04:32;;;;;;;19.42;15.05;;;8.90;99.90;;;;;;4914686;29;20032;-94
2023/03/29 22:07:03;;;;;;;19.73;14.35;;;9.00;99.90;;;;;;4911098;29;20036;-92
2023/03/29 22:09:33;;;;;;;15.75;13.40;;;9.00;99.90;;;;;;4910144;29;20425;-94
2023/03/29 22:12:00;;;;;;;14.63;13.10;;;9.00;99.90;;;;;;4909728;29;20073;-93
2023/03/29 22:14:33;;;;;;;14.32;12.35;;;9.10;99.90;;;;;;4909996;29;20045;-94
2023/03/29 22:17:06;;;;;;;13.83;12.20;;;9.10;99.90;;;;;;4907449;29;20538;-94
2023/03/29 22:19:43;;;;;;;16.98;11.30;;;9.20;99.90;;;;;;4915707;28;20056;-93
2023/03/29 22:22:14;;;;;;;16.10;11.93;;;9.20;99.90;;;;;;4953664;28;20055;-94
2023/03/29 22:24:41;;;;;;;13.40;11.23;;;9.30;99.90;;;;;;4950985;29;20041;-95
2023/03/29 22:27:08;;;;;;;12.77;11.63;;;9.40;99.90;;;;;;4954186;28;20031;-93
2023/03/29 22:29:37;;;;;;;15.48;10.70;;;9.40;99.90;;;;;;4967569;28;20035;-93
2023/03/29 22:32:05;;;;;;;11.80;10.82;;;9.50;99.90;;;;;;4952934;28;20045;-93
2023/03/29 22:34:31;;;;;;;12.43;11.23;;;9.60;99.90;;;;;;4962024;28;20030;-91
2023/03/29 22:36:58;;;;;;;13.23;12.02;;;9.70;99.90;;;;;;4948209;28;20092;-93
2023/03/29 22:39:25;;;;;;;13.68;11.43;;;9.80;99.90;;;;;;4960952;28;20023;-94
2023/03/29 22:41:55;;;;;;;13.18;11.55;;;9.80;99.90;;;;;;4946419;28;20031;-93
2023/03/29 22:44:22;;;;;;;13.23;11.93;;;9.90;99.90;;;;;;4960899;28;20031;-93
2023/03/29 23:50:22;;;;;;;10.05;9.05;;;9.00;99.90;;;;;;5539178;23;20026;-95
2023/03/29 23:53:00;;;;;;;11.02;9.25;;;9.00;99.90;;;;;;4931890;29;20049;-94
2023/03/29 23:55:54;;;;;;;13.55;8.90;;;9.10;99.90;;;;;;4947362;29;20051;-91
2023/03/29 23:58:44;;;;;;;12.25;8.57;;;9.10;99.90;;;;;;5000332;23;20061;-72
